createdAt,value
2023-04-09T00:00:47.909Z,100.00
2023-04-09T00:03:35.006Z,100.00
2023-04-09T00:06:02.783Z,100.00
2023-04-09T00:08:30.372Z,100.00
2023-04-09T00:10:58.284Z,100.00
2023-04-09T00:13:38.624Z,100.00
2023-04-09T00:16:08.283Z,100.00
2023-04-09T00:18:36.382Z,100.00
2023-04-09T00:21:03.596Z,100.00
2023-04-09T00:23:31.110Z,100.00
2023-04-09T00:25:58.541Z,100.00
2023-04-09T00:28:26.114Z,100.00
2023-04-09T00:30:53.349Z,100.00
2023-04-09T00:33:20.924Z,100.00
2023-04-09T00:35:48.134Z,100.00
2023-04-09T00:38:15.694Z,100.00
2023-04-09T00:40:42.979Z,100.00
2023-04-09T00:43:10.590Z,100.00
2023-04-09T00:45:38.216Z,100.00
2023-04-09T00:48:06.058Z,100.00
2023-04-09T00:50:33.275Z,100.00
2023-04-09T00:53:01.235Z,100.00
2023-04-09T00:55:29.179Z,100.00
2023-04-09T00:57:56.697Z,100.00
2023-04-09T01:00:24.201Z,100.00
2023-04-09T01:02:53.140Z,100.00
2023-04-09T01:05:20.716Z,100.00
2023-04-09T01:08:01.828Z,100.00
2023-04-09T01:10:41.957Z,100.00
2023-04-09T01:13:23.834Z,100.00
2023-04-09T01:16:02.016Z,100.00
2023-04-09T01:18:44.539Z,100.00
2023-04-09T01:21:32.693Z,100.00
2023-04-09T01:24:20.167Z,100.00
2023-04-09T01:27:06.790Z,100.00
2023-04-09T01:29:48.419Z,100.00
2023-04-09T01:32:19.536Z,100.00
2023-04-09T01:34:48.592Z,100.00
2023-04-09T01:37:17.002Z,100.00
2023-04-09T01:39:45.705Z,100.00
2023-04-09T01:42:13.983Z,100.00
2023-04-09T01:44:42.923Z,100.00
2023-04-09T01:47:10.624Z,100.00
2023-04-09T01:49:39.892Z,100.00
2023-04-09T01:52:07.598Z,100.00
2023-04-09T01:54:35.249Z,100.00
2023-04-09T01:57:02.468Z,100.00
2023-04-09T01:59:30.012Z,100.00
2023-04-09T02:02:01.533Z,100.00
2023-04-09T02:04:44.060Z,100.00
2023-04-09T02:07:18.833Z,100.00
2023-04-09T02:09:48.516Z,100.00
2023-04-09T02:12:19.137Z,100.00
2023-04-09T02:14:48.518Z,100.00
2023-04-09T02:17:16.288Z,100.00
2023-04-09T02:19:46.546Z,100.00
2023-04-09T02:22:15.357Z,100.00
2023-04-09T02:24:42.863Z,100.00
2023-04-09T02:27:10.341Z,100.00
2023-04-09T02:29:40.660Z,100.00
2023-04-09T02:32:07.982Z,100.00
2023-04-09T02:34:35.857Z,100.00
2023-04-09T02:37:03.039Z,100.00
2023-04-09T02:39:30.657Z,100.00
2023-04-09T02:41:58.097Z,100.00
2023-04-09T02:44:27.797Z,100.00
2023-04-09T02:46:55.978Z,100.00
2023-04-09T02:49:23.662Z,100.00
2023-04-09T02:51:50.898Z,100.00
2023-04-09T02:54:18.469Z,100.00
2023-04-09T02:56:45.673Z,100.00
2023-04-09T02:59:13.232Z,100.00
2023-04-09T03:01:40.497Z,100.00
2023-04-09T03:04:08.412Z,100.00
2023-04-09T03:06:35.706Z,100.00
2023-04-09T03:09:03.260Z,100.00
2023-04-09T03:11:30.468Z,100.00
2023-04-09T03:13:57.994Z,100.00
2023-04-09T03:16:26.645Z,100.00
2023-04-09T03:18:54.412Z,100.00
2023-04-09T03:21:21.714Z,100.00
2023-04-09T03:23:51.110Z,100.00
2023-04-09T03:26:18.471Z,100.00
2023-04-09T03:28:49.051Z,100.00
2023-04-09T03:31:17.222Z,100.00
2023-04-09T03:33:46.192Z,100.00
2023-04-09T03:36:14.037Z,100.00
2023-04-09T03:38:54.689Z,100.00
2023-04-09T03:41:30.024Z,100.00
2023-04-09T03:43:59.822Z,100.00
2023-04-09T03:46:32.057Z,100.00
2023-04-09T03:49:01.188Z,100.00
2023-04-09T03:51:37.401Z,100.00
2023-04-09T03:54:05.414Z,100.00
2023-04-09T03:56:33.535Z,100.00
2023-04-09T03:59:02.999Z,100.00
2023-04-09T04:01:37.796Z,100.00
2023-04-09T04:04:05.661Z,100.00
2023-04-09T04:06:49.104Z,100.00
2023-04-09T04:09:29.951Z,100.00
2023-04-09T04:12:12.690Z,100.00
2023-04-09T04:15:04.949Z,100.00
2023-04-09T04:17:44.073Z,100.00
2023-04-09T04:20:38.159Z,100.00
2023-04-09T04:23:09.848Z,100.00
2023-04-09T04:25:43.485Z,100.00
2023-04-09T04:28:15.038Z,100.00
2023-04-09T04:30:43.275Z,100.00
2023-04-09T04:33:11.154Z,100.00
2023-04-09T04:35:50.606Z,100.00
2023-04-09T04:38:36.784Z,100.00
2023-04-09T04:41:08.638Z,100.00
2023-04-09T04:43:41.606Z,100.00
2023-04-09T04:46:14.065Z,100.00
2023-04-09T04:48:41.369Z,100.00
2023-04-09T04:51:08.946Z,100.00
2023-04-09T04:53:42.305Z,100.00
2023-04-09T04:56:16.582Z,100.00
2023-04-09T04:58:57.281Z,100.00
2023-04-09T05:01:25.367Z,100.00
2023-04-09T05:03:53.649Z,100.00
2023-04-09T05:06:29.820Z,99.61
2023-04-09T05:08:58.349Z,98.44
2023-04-09T05:11:28.600Z,97.08
2023-04-09T05:13:55.952Z,96.57
2023-04-09T05:16:24.424Z,96.45
2023-04-09T05:19:02.066Z,94.87
2023-04-09T05:21:29.736Z,94.14
2023-04-09T05:23:58.190Z,93.66
2023-04-09T05:26:26.986Z,94.47
2023-04-09T05:28:57.735Z,93.42
2023-04-09T05:31:25.822Z,94.74
2023-04-09T05:34:06.388Z,92.27
2023-04-09T05:36:38.624Z,88.63
2023-04-09T05:39:06.012Z,86.76
2023-04-09T05:41:33.777Z,84.31
2023-04-09T05:44:16.634Z,82.42
2023-04-09T05:46:44.727Z,82.25
2023-04-09T05:49:14.982Z,78.94
2023-04-09T05:51:44.817Z,79.58
2023-04-09T05:54:12.178Z,80.63
2023-04-09T05:56:39.738Z,78.28
2023-04-09T05:59:07.393Z,76.04
2023-04-09T06:01:35.004Z,72.73
2023-04-09T06:04:04.724Z,68.19
2023-04-09T06:06:32.730Z,63.92
2023-04-09T06:09:00.732Z,51.92
2023-04-09T06:11:28.218Z,40.55
2023-04-09T06:13:55.498Z,36.22
2023-04-09T06:16:23.534Z,31.95
2023-04-09T06:18:54.545Z,30.77
2023-04-09T06:21:22.088Z,30.29
2023-04-09T06:23:49.397Z,29.03
2023-04-09T06:26:17.695Z,26.83
2023-04-09T06:28:44.872Z,23.86
2023-04-09T06:31:12.416Z,23.04
2023-04-09T06:33:39.663Z,23.23
2023-04-09T06:36:07.665Z,21.75
2023-04-09T06:38:34.849Z,20.88
2023-04-09T06:41:02.355Z,20.54
2023-04-09T06:43:29.713Z,20.71
2023-04-09T06:45:57.314Z,22.34
2023-04-09T06:48:24.637Z,20.45
2023-04-09T06:50:52.218Z,19.20
2023-04-09T06:53:20.178Z,20.99
2023-04-09T06:55:47.813Z,20.13
2023-04-09T06:58:15.088Z,20.16
2023-04-09T07:00:42.841Z,20.58
2023-04-09T07:03:10.243Z,21.62
2023-04-09T07:05:37.892Z,18.93
2023-04-09T07:08:05.497Z,19.58
2023-04-09T07:10:33.103Z,21.22
2023-04-09T07:13:00.662Z,22.34
2023-04-09T07:15:28.311Z,20.01
2023-04-09T07:17:57.700Z,18.71
2023-04-09T07:20:25.504Z,19.54
2023-04-09T07:22:52.831Z,19.99
2023-04-09T07:25:21.419Z,20.75
2023-04-09T07:27:49.811Z,21.95
2023-04-09T07:30:17.408Z,20.61
2023-04-09T07:32:44.764Z,19.79
2023-04-09T07:35:12.532Z,20.25
2023-04-09T07:37:39.920Z,20.37
2023-04-09T07:40:08.521Z,21.51
2023-04-09T07:42:38.908Z,22.87
2023-04-09T07:45:07.461Z,22.31
2023-04-09T07:47:34.815Z,20.38
2023-04-09T07:50:02.562Z,20.71
2023-04-09T07:52:29.832Z,18.79
2023-04-09T07:54:57.913Z,20.78
2023-04-09T07:57:25.215Z,21.10
2023-04-09T07:59:53.565Z,20.55
2023-04-09T08:02:21.375Z,21.86
2023-04-09T08:04:49.099Z,23.97
2023-04-09T08:07:16.355Z,24.61
2023-04-09T08:09:43.882Z,30.00
2023-04-09T08:12:11.247Z,33.01
2023-04-09T08:14:38.726Z,37.50
2023-04-09T08:17:06.177Z,42.14
2023-04-09T08:19:33.905Z,44.47
2023-04-09T08:22:01.669Z,45.97
2023-04-09T08:24:29.267Z,44.54
2023-04-09T08:26:57.808Z,41.53
2023-04-09T08:29:25.287Z,42.06
2023-04-09T08:31:52.643Z,42.39
2023-04-09T08:34:22.245Z,37.36
2023-04-09T08:36:50.166Z,34.34
2023-04-09T08:39:21.069Z,34.99
2023-04-09T08:41:48.671Z,37.09
2023-04-09T08:44:16.771Z,36.58
2023-04-09T08:46:44.831Z,41.17
2023-04-09T08:49:13.101Z,43.37
2023-04-09T08:51:46.210Z,49.84
2023-04-09T08:54:17.281Z,55.76
2023-04-09T08:56:44.605Z,55.46
2023-04-09T08:59:15.707Z,55.84
2023-04-09T09:01:43.369Z,57.01
2023-04-09T09:04:11.561Z,56.54
2023-04-09T09:06:41.099Z,54.74
2023-04-09T09:09:13.988Z,55.56
2023-04-09T09:11:46.456Z,55.51
2023-04-09T09:14:16.444Z,55.23
2023-04-09T09:17:03.815Z,53.93
2023-04-09T09:19:37.292Z,54.53
2023-04-09T09:22:06.728Z,50.40
2023-04-09T09:24:34.614Z,47.89
2023-04-09T09:27:02.813Z,45.26
2023-04-09T09:29:30.602Z,45.31
2023-04-09T09:31:57.838Z,46.21
2023-04-09T09:34:26.045Z,46.46
2023-04-09T09:36:53.451Z,45.48
2023-04-09T09:39:22.171Z,42.93
2023-04-09T09:42:07.870Z,45.24
2023-04-09T09:44:35.367Z,46.75
2023-04-09T09:47:04.782Z,44.83
2023-04-09T09:49:32.335Z,44.57
2023-04-09T09:52:02.968Z,44.00
2023-04-09T09:54:40.484Z,44.61
2023-04-09T09:57:15.235Z,46.04
2023-04-09T10:00:01.460Z,43.05
2023-04-09T10:03:04.403Z,38.71
2023-04-09T10:05:32.010Z,36.79
2023-04-09T10:08:00.644Z,37.79
2023-04-09T10:10:28.571Z,36.83
2023-04-09T10:12:56.419Z,37.22
2023-04-09T10:15:24.193Z,39.35
2023-04-09T10:17:51.875Z,38.43
2023-04-09T10:20:28.871Z,38.73
2023-04-09T10:22:57.749Z,38.05
2023-04-09T10:25:26.412Z,38.79
2023-04-09T10:28:02.247Z,38.61
2023-04-09T10:30:37.502Z,37.38
2023-04-09T10:33:12.972Z,36.40
2023-04-09T10:35:40.800Z,35.66
2023-04-09T10:38:09.800Z,34.67
2023-04-09T10:40:51.048Z,35.91
2023-04-09T10:43:20.150Z,38.14
2023-04-09T10:45:53.404Z,35.39
2023-04-09T10:48:22.149Z,32.82
2023-04-09T10:50:52.461Z,33.22
2023-04-09T10:53:24.411Z,35.84
2023-04-09T10:55:56.343Z,39.33
2023-04-09T10:58:23.586Z,38.91
2023-04-09T11:00:51.693Z,37.90
2023-04-09T11:03:32.591Z,39.23
2023-04-09T11:06:03.272Z,36.96
2023-04-09T11:08:32.783Z,42.35
2023-04-09T11:11:01.939Z,43.71
2023-04-09T11:13:31.835Z,43.19
2023-04-09T11:16:01.286Z,41.67
2023-04-09T11:18:30.506Z,41.86
2023-04-09T11:20:59.978Z,40.77
2023-04-09T11:23:28.079Z,42.18
2023-04-09T11:25:56.561Z,43.60
2023-04-09T11:28:24.561Z,45.15
2023-04-09T11:30:52.857Z,47.13
2023-04-09T11:33:20.786Z,48.95
2023-04-09T11:35:49.023Z,49.27
2023-04-09T11:38:16.550Z,48.02
2023-04-09T11:40:48.861Z,46.69
2023-04-09T11:43:17.142Z,49.10
2023-04-09T11:45:47.155Z,49.65
2023-04-09T11:48:15.129Z,50.66
2023-04-09T11:50:42.939Z,51.62
2023-04-09T11:53:37.416Z,48.34
2023-04-09T11:56:05.159Z,51.00
2023-04-09T11:58:32.437Z,50.54
2023-04-09T12:01:00.404Z,50.16
2023-04-09T12:03:33.317Z,49.28
2023-04-09T12:06:03.222Z,48.62
2023-04-09T12:08:31.437Z,51.72
2023-04-09T12:11:09.272Z,51.89
2023-04-09T12:13:36.577Z,54.65
2023-04-09T12:16:04.239Z,55.46
2023-04-09T12:18:31.553Z,56.38
2023-04-09T12:21:01.190Z,55.70
2023-04-09T12:23:28.561Z,54.60
2023-04-09T12:25:56.149Z,53.58
2023-04-09T12:28:23.314Z,56.62
2023-04-09T12:30:51.398Z,57.56
2023-04-09T12:33:18.904Z,57.34
2023-04-09T12:35:46.530Z,59.27
2023-04-09T12:38:13.765Z,59.07
2023-04-09T12:40:41.411Z,58.43
2023-04-09T12:43:08.663Z,57.44
2023-04-09T12:45:36.740Z,55.63
2023-04-09T12:48:04.146Z,57.47
2023-04-09T12:50:31.765Z,57.84
2023-04-09T12:52:59.006Z,57.37
2023-04-09T12:55:26.699Z,57.69
2023-04-09T12:57:53.993Z,59.16
2023-04-09T13:00:21.513Z,58.13
2023-04-09T13:02:50.022Z,58.48
2023-04-09T13:05:17.699Z,57.94
2023-04-09T13:07:45.178Z,57.95
2023-04-09T13:10:12.755Z,57.81
2023-04-09T13:12:39.999Z,58.63
2023-04-09T13:15:07.698Z,57.60
2023-04-09T13:17:34.919Z,58.18
2023-04-09T13:20:03.153Z,58.79
2023-04-09T13:22:30.434Z,57.60
2023-04-09T13:24:57.920Z,56.62
2023-04-09T13:27:25.534Z,56.12
2023-04-09T13:29:53.045Z,56.94
2023-04-09T13:32:22.385Z,56.85
2023-04-09T13:34:50.521Z,56.31
2023-04-09T13:37:17.773Z,55.00
2023-04-09T13:39:45.521Z,54.82
2023-04-09T13:42:14.056Z,55.02
2023-04-09T13:44:47.390Z,55.31
2023-04-09T13:47:17.984Z,55.68
2023-04-09T13:49:45.920Z,55.34
2023-04-09T13:52:13.196Z,54.80
2023-04-09T13:54:40.685Z,53.29
2023-04-09T13:57:08.044Z,53.18
2023-04-09T13:59:36.182Z,52.99
2023-04-09T14:02:03.640Z,53.97
2023-04-09T14:04:31.269Z,54.61
2023-04-09T14:06:58.515Z,54.59
2023-04-09T14:09:26.100Z,56.35
2023-04-09T14:11:54.942Z,58.67
2023-04-09T14:14:22.528Z,58.72
2023-04-09T14:16:50.504Z,58.18
2023-04-09T14:19:17.991Z,58.09
2023-04-09T14:21:45.418Z,58.74
2023-04-09T14:24:12.922Z,59.08
2023-04-09T14:26:40.111Z,59.81
2023-04-09T14:29:07.845Z,58.13
2023-04-09T14:31:35.160Z,58.86
2023-04-09T14:34:02.996Z,58.11
2023-04-09T14:36:31.750Z,57.95
2023-04-09T14:38:59.844Z,56.85
2023-04-09T14:41:27.404Z,58.25
2023-04-09T14:43:54.898Z,58.27
2023-04-09T14:46:22.271Z,56.96
2023-04-09T14:48:49.997Z,58.07
2023-04-09T14:51:17.504Z,57.72
2023-04-09T14:53:44.986Z,58.06
2023-04-09T14:56:12.185Z,57.63
2023-04-09T14:58:39.662Z,58.47
2023-04-09T15:01:07.045Z,57.87
2023-04-09T15:03:35.010Z,59.61
2023-04-09T15:06:02.488Z,59.76
2023-04-09T15:08:30.045Z,59.78
2023-04-09T15:10:57.257Z,58.85
2023-04-09T15:13:24.923Z,59.21
2023-04-09T15:15:52.353Z,59.65
2023-04-09T15:18:21.674Z,60.81
2023-04-09T15:20:49.186Z,61.14
2023-04-09T15:23:16.656Z,61.60
2023-04-09T15:25:43.846Z,60.90
2023-04-09T15:28:11.428Z,62.36
2023-04-09T15:30:38.663Z,61.86
2023-04-09T15:33:06.391Z,62.94
2023-04-09T15:35:34.690Z,63.12
2023-04-09T15:38:02.310Z,62.08
2023-04-09T15:40:30.886Z,63.84
2023-04-09T15:42:58.645Z,64.51
2023-04-09T15:45:26.619Z,63.42
2023-04-09T15:47:54.398Z,62.80
2023-04-09T15:50:21.650Z,64.04
2023-04-09T15:52:49.222Z,64.33
2023-04-09T15:55:16.636Z,64.12
2023-04-09T15:57:46.884Z,65.41
2023-04-09T16:00:15.621Z,65.95
2023-04-09T16:02:43.216Z,67.74
2023-04-09T16:05:10.511Z,69.81
2023-04-09T16:07:39.631Z,70.26
2023-04-09T16:10:07.399Z,70.87
2023-04-09T16:12:34.926Z,71.35
2023-04-09T16:15:02.592Z,72.02
2023-04-09T16:17:30.917Z,74.84
2023-04-09T16:19:58.270Z,75.46
2023-04-09T16:22:26.061Z,75.68
2023-04-09T16:24:53.241Z,74.62
2023-04-09T16:27:20.941Z,74.46
2023-04-09T16:29:48.438Z,74.34
2023-04-09T16:32:16.059Z,75.03
2023-04-09T16:34:43.340Z,75.53
2023-04-09T16:37:11.013Z,76.90
2023-04-09T16:39:38.257Z,77.84
2023-04-09T16:42:06.182Z,78.44
2023-04-09T16:44:33.493Z,77.73
2023-04-09T16:47:02.774Z,79.40
2023-04-09T16:49:31.426Z,79.97
2023-04-09T16:51:58.968Z,80.30
2023-04-09T16:54:26.235Z,81.39
2023-04-09T16:56:53.711Z,83.37
2023-04-09T16:59:21.211Z,82.63
2023-04-09T17:01:49.228Z,82.49
2023-04-09T17:04:16.655Z,82.72
2023-04-09T17:06:44.244Z,83.42
2023-04-09T17:09:11.475Z,83.33
2023-04-09T17:11:39.023Z,83.12
2023-04-09T17:14:06.551Z,83.89
2023-04-09T17:16:34.150Z,84.54
2023-04-09T17:19:01.415Z,85.11
2023-04-09T17:21:28.962Z,85.76
2023-04-09T17:23:56.166Z,86.31
2023-04-09T17:26:24.772Z,85.97
2023-04-09T17:28:52.550Z,86.67
2023-04-09T17:31:24.081Z,86.79
2023-04-09T17:33:51.858Z,85.96
2023-04-09T17:36:21.154Z,85.93
2023-04-09T17:38:49.967Z,86.35
2023-04-09T17:41:17.758Z,87.73
2023-04-09T17:43:44.959Z,87.54
2023-04-09T17:46:12.822Z,86.90
2023-04-09T17:48:41.738Z,87.27
2023-04-09T17:51:14.798Z,87.13
2023-04-09T17:53:42.572Z,87.67
2023-04-09T17:56:17.456Z,88.73
2023-04-09T17:58:45.166Z,88.86
2023-04-09T18:01:13.714Z,88.08
2023-04-09T18:03:42.767Z,88.04
2023-04-09T18:06:10.842Z,87.70
2023-04-09T18:08:38.250Z,87.42
2023-04-09T18:11:12.932Z,87.85
2023-04-09T18:13:40.982Z,86.91
2023-04-09T18:16:10.705Z,85.52
2023-04-09T18:18:38.838Z,84.23
2023-04-09T18:21:06.505Z,83.58
2023-04-09T18:23:33.781Z,83.39
2023-04-09T18:26:01.350Z,82.96
2023-04-09T18:28:28.571Z,81.52
2023-04-09T18:30:56.201Z,81.13
2023-04-09T18:33:23.542Z,81.62
2023-04-09T18:35:51.321Z,80.27
2023-04-09T18:38:18.682Z,79.02
2023-04-09T18:40:46.356Z,78.31
2023-04-09T18:43:13.881Z,78.08
2023-04-09T18:45:41.816Z,78.07
2023-04-09T18:48:09.139Z,79.03
2023-04-09T18:50:36.699Z,79.50
2023-04-09T18:53:05.602Z,79.34
2023-04-09T18:55:37.735Z,80.38
2023-04-09T18:58:08.788Z,80.07
2023-04-09T19:00:36.668Z,79.41
2023-04-09T19:03:04.750Z,79.92
2023-04-09T19:05:33.226Z,80.12
2023-04-09T19:08:01.692Z,79.45
2023-04-09T19:10:29.447Z,80.21
2023-04-09T19:12:56.717Z,79.41
2023-04-09T19:15:29.591Z,80.02
2023-04-09T19:17:57.591Z,80.42
2023-04-09T19:20:25.268Z,80.46
2023-04-09T19:22:54.550Z,80.57
2023-04-09T19:25:22.961Z,81.76
2023-04-09T19:27:50.463Z,82.63
2023-04-09T19:30:17.976Z,83.17
2023-04-09T19:32:46.028Z,83.89
2023-04-09T19:35:13.624Z,84.64
2023-04-09T19:37:40.919Z,84.57
2023-04-09T19:40:09.073Z,83.68
2023-04-09T19:42:36.740Z,84.04
2023-04-09T19:45:04.596Z,83.95
2023-04-09T19:47:31.973Z,84.02
2023-04-09T19:49:59.481Z,84.36
2023-04-09T19:52:27.138Z,84.05
2023-04-09T19:54:58.090Z,84.40
2023-04-09T19:57:26.590Z,84.96
2023-04-09T19:59:54.263Z,84.87
2023-04-09T20:02:21.705Z,85.56
2023-04-09T20:04:50.626Z,85.58
2023-04-09T20:07:18.136Z,84.49
2023-04-09T20:09:47.008Z,84.87
2023-04-09T20:12:14.488Z,85.84
2023-04-09T20:14:42.012Z,86.25
2023-04-09T20:17:09.877Z,86.18
2023-04-09T20:19:38.029Z,86.62
2023-04-09T20:22:05.435Z,87.06
2023-04-09T20:24:33.971Z,87.69
2023-04-09T20:27:01.743Z,88.12
2023-04-09T20:29:29.463Z,89.19
2023-04-09T20:31:56.716Z,89.77
2023-04-09T20:34:26.982Z,90.35
2023-04-09T20:36:55.088Z,90.47
2023-04-09T20:39:26.668Z,89.85
2023-04-09T20:41:55.144Z,89.50
2023-04-09T20:44:24.504Z,90.81
2023-04-09T20:46:52.046Z,90.89
2023-04-09T20:49:19.706Z,91.48
2023-04-09T20:51:47.684Z,91.67
2023-04-09T20:54:18.049Z,91.96
2023-04-09T20:56:45.392Z,92.98
2023-04-09T20:59:12.924Z,93.54
2023-04-09T21:01:40.460Z,94.32
2023-04-09T21:04:08.950Z,94.66
2023-04-09T21:06:36.400Z,95.87
2023-04-09T21:09:04.076Z,95.95
2023-04-09T21:11:31.347Z,96.27
2023-04-09T21:13:58.989Z,96.50
2023-04-09T21:16:28.604Z,97.67
2023-04-09T21:18:56.512Z,97.63
2023-04-09T21:21:24.157Z,97.39
2023-04-09T21:23:51.654Z,97.55
2023-04-09T21:26:18.968Z,97.40
2023-04-09T21:28:50.579Z,97.14
2023-04-09T21:31:18.059Z,98.11
2023-04-09T21:33:45.720Z,98.37
2023-04-09T21:36:13.149Z,98.60
2023-04-09T21:38:40.764Z,98.27
2023-04-09T21:41:08.487Z,99.08
2023-04-09T21:43:38.463Z,98.96
2023-04-09T21:46:05.852Z,99.34
2023-04-09T21:48:33.451Z,99.40
2023-04-09T21:51:01.154Z,99.20
2023-04-09T21:53:31.343Z,99.45
2023-04-09T21:55:58.719Z,99.54
2023-04-09T21:58:26.281Z,99.76
2023-04-09T22:00:53.513Z,99.70
2023-04-09T22:03:21.898Z,100.00
2023-04-09T22:05:49.304Z,100.00
2023-04-09T22:08:16.820Z,100.00
2023-04-09T22:10:44.018Z,100.00
2023-04-09T22:13:11.596Z,100.00
2023-04-09T22:15:38.964Z,100.00
2023-04-09T22:18:06.783Z,100.00
2023-04-09T22:20:34.004Z,99.84
2023-04-09T22:23:01.672Z,99.99
2023-04-09T22:25:34.888Z,99.90
2023-04-09T22:28:02.721Z,100.00
2023-04-09T22:30:30.107Z,100.00
2023-04-09T22:32:57.772Z,100.00
2023-04-09T22:35:25.121Z,100.00
2023-04-09T22:37:52.858Z,100.00
2023-04-09T22:40:20.088Z,100.00
2023-04-09T22:42:48.156Z,100.00
2023-04-09T22:45:15.753Z,100.00
2023-04-09T22:47:43.247Z,100.00
2023-04-09T22:50:11.531Z,100.00
2023-04-09T22:52:39.024Z,100.00
2023-04-09T22:55:10.052Z,100.00
2023-04-09T22:57:38.465Z,100.00
2023-04-09T23:00:07.054Z,100.00
2023-04-09T23:02:34.825Z,100.00
2023-04-09T23:05:02.331Z,100.00
2023-04-09T23:07:30.067Z,100.00
2023-04-09T23:09:57.286Z,100.00
2023-04-09T23:12:24.795Z,100.00
2023-04-09T23:14:53.337Z,100.00
2023-04-09T23:17:22.779Z,100.00
2023-04-09T23:19:52.459Z,100.00
2023-04-09T23:22:20.006Z,100.00
2023-04-09T23:24:47.228Z,100.00
2023-04-09T23:27:15.004Z,100.00
2023-04-09T23:29:42.244Z,100.00
2023-04-09T23:32:09.978Z,100.00
2023-04-09T23:34:37.169Z,100.00
2023-04-09T23:37:04.740Z,100.00
2023-04-09T23:39:31.909Z,100.00
2023-04-09T23:41:59.440Z,100.00
2023-04-09T23:44:26.874Z,100.00
2023-04-09T23:46:54.423Z,100.00
2023-04-09T23:49:21.728Z,100.00
2023-04-09T23:51:51.329Z,100.00
2023-04-09T23:54:18.573Z,100.00
2023-04-09T23:56:46.906Z,100.00
2023-04-09T23:59:14.162Z,100.00
